sensor_id;sensor_type;location;lat;lon;timestamp;P1;durP1;ratioP1;P2;durP2;ratioP2
3141;SDS011;1581;51.568;6.998;2024-01-15T00:01:49;36.80;;;17.00;;
3141;SDS011;1581;51.568;6.998;2024-01-15T00:04:17;30.30;;;16.17;;
3141;SDS011;1581;51.568;6.998;2024-01-15T00:06:44;30.20;;;15.63;;
3141;SDS011;1581;51.568;6.998;2024-01-15T00:09:12;33.33;;;15.43;;
3141;SDS011;1581;51.568;6.998;2024-01-15T00:11:39;32.27;;;16.30;;
3141;SDS011;1581;51.568;6.998;2024-01-15T00:14:07;31.80;;;16.83;;
3141;SDS011;1581;51.568;6.998;2024-01-15T00:16:36;33.97;;;16.07;;
3141;SDS011;1581;51.568;6.998;2024-01-15T00:19:03;28.63;;;16.20;;
3141;SDS011;1581;51.568;6.998;2024-01-15T00:21:31;34.47;;;16.60;;
3141;SDS011;1581;51.568;6.998;2024-01-15T00:23:58;41.57;;;16.67;;
3141;SDS011;1581;51.568;6.998;2024-01-15T00:26:26;33.00;;;17.20;;
3141;SDS011;1581;51.568;6.998;2024-01-15T00:28:53;29.80;;;14.63;;
3141;SDS011;1581;51.568;6.998;2024-01-15T00:31:21;28.20;;;15.07;;
3141;SDS011;1581;51.568;6.998;2024-01-15T00:33:50;35.83;;;17.13;;
3141;SDS011;1581;51.568;6.998;2024-01-15T00:36:17;31.73;;;14.60;;
3141;SDS011;1581;51.568;6.998;2024-01-15T00:38:44;23.80;;;13.30;;
3141;SDS011;1581;51.568;6.998;2024-01-15T00:41:12;28.43;;;13.93;;
3141;SDS011;1581;51.568;6.998;2024-01-15T00:43:40;32.83;;;17.07;;
3141;SDS011;1581;51.568;6.998;2024-01-15T00:46:07;31.37;;;15.37;;
3141;SDS011;1581;51.568;6.998;2024-01-15T00:48:35;35.10;;;15.57;;
3141;SDS011;1581;51.568;6.998;2024-01-15T00:51:04;35.20;;;14.80;;
3141;SDS011;1581;51.568;6.998;2024-01-15T00:53:31;31.30;;;15.13;;
3141;SDS011;1581;51.568;6.998;2024-01-15T00:55:59;28.90;;;13.67;;
3141;SDS011;1581;51.568;6.998;2024-01-15T00:58:27;27.20;;;14.13;;
3141;SDS011;1581;51.568;6.998;2024-01-15T01:00:54;25.07;;;12.67;;
3141;SDS011;1581;51.568;6.998;2024-01-15T01:03:22;26.70;;;13.50;;
3141;SDS011;1581;51.568;6.998;2024-01-15T01:05:49;25.27;;;12.50;;
3141;SDS011;1581;51.568;6.998;2024-01-15T01:08:18;29.93;;;13.10;;
3141;SDS011;1581;51.568;6.998;2024-01-15T01:10:45;22.60;;;12.27;;
3141;SDS011;1581;51.568;6.998;2024-01-15T01:13:12;25.87;;;12.80;;
3141;SDS011;1581;51.568;6.998;2024-01-15T01:15:40;23.60;;;11.70;;
3141;SDS011;1581;51.568;6.998;2024-01-15T01:18:07;21.70;;;11.20;;
3141;SDS011;1581;51.568;6.998;2024-01-15T01:20:35;24.93;;;12.17;;
3141;SDS011;1581;51.568;6.998;2024-01-15T01:23:01;18.23;;;9.80;;
3141;SDS011;1581;51.568;6.998;2024-01-15T01:25:30;21.33;;;10.90;;
3141;SDS011;1581;51.568;6.998;2024-01-15T01:27:57;17.70;;;9.60;;
3141;SDS011;1581;51.568;6.998;2024-01-15T01:30:25;21.03;;;10.00;;
3141;SDS011;1581;51.568;6.998;2024-01-15T01:32:52;19.97;;;10.40;;
3141;SDS011;1581;51.568;6.998;2024-01-15T01:35:20;17.70;;;10.53;;
3141;SDS011;1581;51.568;6.998;2024-01-15T01:37:47;17.37;;;9.43;;
3141;SDS011;1581;51.568;6.998;2024-01-15T01:40:14;21.00;;;10.47;;
3141;SDS011;1581;51.568;6.998;2024-01-15T01:42:43;19.23;;;10.10;;
3141;SDS011;1581;51.568;6.998;2024-01-15T01:45:11;20.47;;;9.50;;
3141;SDS011;1581;51.568;6.998;2024-01-15T01:47:39;21.37;;;9.80;;
3141;SDS011;1581;51.568;6.998;2024-01-15T01:50:06;18.17;;;9.10;;
3141;SDS011;1581;51.568;6.998;2024-01-15T01:52:34;18.57;;;9.20;;
3141;SDS011;1581;51.568;6.998;2024-01-15T01:55:02;20.70;;;9.77;;
3141;SDS011;1581;51.568;6.998;2024-01-15T01:57:32;16.80;;;10.03;;
3141;SDS011;1581;51.568;6.998;2024-01-15T02:00:03;24.57;;;11.07;;
3141;SDS011;1581;51.568;6.998;2024-01-15T02:02:34;19.43;;;9.70;;
3141;SDS011;1581;51.568;6.998;2024-01-15T02:05:01;18.37;;;10.20;;
3141;SDS011;1581;51.568;6.998;2024-01-15T02:07:31;20.90;;;11.57;;
3141;SDS011;1581;51.568;6.998;2024-01-15T02:10:01;22.07;;;10.73;;
3141;SDS011;1581;51.568;6.998;2024-01-15T02:12:28;20.23;;;11.13;;
3141;SDS011;1581;51.568;6.998;2024-01-15T02:14:56;16.90;;;9.70;;
3141;SDS011;1581;51.568;6.998;2024-01-15T02:17:25;14.87;;;8.80;;
3141;SDS011;1581;51.568;6.998;2024-01-15T02:19:52;17.27;;;9.93;;
3141;SDS011;1581;51.568;6.998;2024-01-15T02:22:20;20.77;;;10.87;;
3141;SDS011;1581;51.568;6.998;2024-01-15T02:24:49;22.03;;;10.93;;
3141;SDS011;1581;51.568;6.998;2024-01-15T02:27:16;17.90;;;10.30;;
3141;SDS011;1581;51.568;6.998;2024-01-15T02:29:44;14.07;;;7.57;;
3141;SDS011;1581;51.568;6.998;2024-01-15T02:32:12;20.70;;;9.63;;
3141;SDS011;1581;51.568;6.998;2024-01-15T02:34:39;19.30;;;9.57;;
3141;SDS011;1581;51.568;6.998;2024-01-15T02:37:07;17.00;;;9.83;;
3141;SDS011;1581;51.568;6.998;2024-01-15T02:39:34;19.40;;;8.50;;
3141;SDS011;1581;51.568;6.998;2024-01-15T02:42:03;18.73;;;9.30;;
3141;SDS011;1581;51.568;6.998;2024-01-15T02:44:31;19.50;;;9.37;;
3141;SDS011;1581;51.568;6.998;2024-01-15T02:46:58;24.80;;;10.40;;
3141;SDS011;1581;51.568;6.998;2024-01-15T02:49:25;19.40;;;9.10;;
3141;SDS011;1581;51.568;6.998;2024-01-15T02:51:54;19.80;;;8.97;;
3141;SDS011;1581;51.568;6.998;2024-01-15T02:54:21;15.37;;;9.50;;
3141;SDS011;1581;51.568;6.998;2024-01-15T02:56:48;18.80;;;8.90;;
3141;SDS011;1581;51.568;6.998;2024-01-15T02:59:17;24.80;;;8.93;;
3141;SDS011;1581;51.568;6.998;2024-01-15T03:01:46;20.83;;;10.00;;
3141;SDS011;1581;51.568;6.998;2024-01-15T03:04:13;18.83;;;9.20;;
3141;SDS011;1581;51.568;6.998;2024-01-15T03:06:41;20.50;;;10.30;;
3141;SDS011;1581;51.568;6.998;2024-01-15T03:09:09;19.17;;;9.33;;
3141;SDS011;1581;51.568;6.998;2024-01-15T03:11:37;15.43;;;8.10;;
3141;SDS011;1581;51.568;6.998;2024-01-15T03:14:05;24.50;;;9.07;;
3141;SDS011;1581;51.568;6.998;2024-01-15T03:16:33;22.63;;;9.10;;
3141;SDS011;1581;51.568;6.998;2024-01-15T03:19:01;19.70;;;7.70;;
3141;SDS011;1581;51.568;6.998;2024-01-15T03:21:28;15.47;;;7.83;;
3141;SDS011;1581;51.568;6.998;2024-01-15T03:23:56;19.13;;;8.60;;
3141;SDS011;1581;51.568;6.998;2024-01-15T03:26:23;14.47;;;8.10;;
3141;SDS011;1581;51.568;6.998;2024-01-15T03:28:51;16.63;;;8.10;;
3141;SDS011;1581;51.568;6.998;2024-01-15T03:31:18;18.00;;;7.30;;
3141;SDS011;1581;51.568;6.998;2024-01-15T03:33:47;14.77;;;7.90;;
3141;SDS011;1581;51.568;6.998;2024-01-15T03:36:14;13.40;;;7.87;;
3141;SDS011;1581;51.568;6.998;2024-01-15T03:38:42;17.30;;;8.33;;
3141;SDS011;1581;51.568;6.998;2024-01-15T03:41:09;13.17;;;7.60;;
3141;SDS011;1581;51.568;6.998;2024-01-15T03:43:37;15.40;;;7.53;;
3141;SDS011;1581;51.568;6.998;2024-01-15T03:46:05;23.90;;;7.37;;
3141;SDS011;1581;51.568;6.998;2024-01-15T03:48:33;14.60;;;7.10;;
3141;SDS011;1581;51.568;6.998;2024-01-15T03:51:02;12.03;;;6.53;;
3141;SDS011;1581;51.568;6.998;2024-01-15T03:53:30;13.23;;;6.50;;
3141;SDS011;1581;51.568;6.998;2024-01-15T03:55:57;22.67;;;6.30;;
3141;SDS011;1581;51.568;6.998;2024-01-15T03:58:25;33.63;;;7.50;;
3141;SDS011;1581;51.568;6.998;2024-01-15T04:04:10;10.10;;;5.87;;
3141;SDS011;1581;51.568;6.998;2024-01-15T04:06:38;8.20;;;5.70;;
3141;SDS011;1581;51.568;6.998;2024-01-15T04:09:06;14.73;;;5.40;;
3141;SDS011;1581;51.568;6.998;2024-01-15T04:11:33;10.67;;;5.20;;
3141;SDS011;1581;51.568;6.998;2024-01-15T04:14:01;10.13;;;4.97;;
3141;SDS011;1581;51.568;6.998;2024-01-15T04:16:28;11.70;;;4.67;;
3141;SDS011;1581;51.568;6.998;2024-01-15T04:18:56;9.53;;;6.30;;
3141;SDS011;1581;51.568;6.998;2024-01-15T04:21:23;7.77;;;5.00;;
3141;SDS011;1581;51.568;6.998;2024-01-15T04:23:52;11.00;;;6.17;;
3141;SDS011;1581;51.568;6.998;2024-01-15T04:26:19;17.20;;;6.83;;
3141;SDS011;1581;51.568;6.998;2024-01-15T04:28:47;17.53;;;6.77;;
3141;SDS011;1581;51.568;6.998;2024-01-15T04:31:20;13.30;;;6.43;;
3141;SDS011;1581;51.568;6.998;2024-01-15T04:33:49;15.03;;;6.00;;
3141;SDS011;1581;51.568;6.998;2024-01-15T04:36:16;12.87;;;6.37;;
3141;SDS011;1581;51.568;6.998;2024-01-15T04:38:44;13.50;;;7.83;;
3141;SDS011;1581;51.568;6.998;2024-01-15T04:41:13;20.70;;;6.97;;
3141;SDS011;1581;51.568;6.998;2024-01-15T04:43:42;17.43;;;8.00;;
3141;SDS011;1581;51.568;6.998;2024-01-15T04:46:09;17.40;;;8.77;;
3141;SDS011;1581;51.568;6.998;2024-01-15T04:48:37;21.53;;;10.07;;
3141;SDS011;1581;51.568;6.998;2024-01-15T04:51:04;17.50;;;7.87;;
3141;SDS011;1581;51.568;6.998;2024-01-15T04:53:35;18.43;;;9.13;;
3141;SDS011;1581;51.568;6.998;2024-01-15T04:56:03;15.13;;;7.60;;
3141;SDS011;1581;51.568;6.998;2024-01-15T04:58:32;15.73;;;7.13;;
3141;SDS011;1581;51.568;6.998;2024-01-15T05:00:59;14.87;;;7.47;;
3141;SDS011;1581;51.568;6.998;2024-01-15T05:03:27;15.17;;;6.50;;
3141;SDS011;1581;51.568;6.998;2024-01-15T05:05:54;17.07;;;6.70;;
3141;SDS011;1581;51.568;6.998;2024-01-15T05:08:22;18.27;;;6.43;;
3141;SDS011;1581;51.568;6.998;2024-01-15T05:10:49;9.30;;;6.20;;
3141;SDS011;1581;51.568;6.998;2024-01-15T05:13:17;10.80;;;6.20;;
3141;SDS011;1581;51.568;6.998;2024-01-15T05:15:46;11.90;;;6.20;;
3141;SDS011;1581;51.568;6.998;2024-01-15T05:18:13;10.97;;;6.40;;
3141;SDS011;1581;51.568;6.998;2024-01-15T05:20:42;9.80;;;6.13;;
3141;SDS011;1581;51.568;6.998;2024-01-15T05:23:10;10.23;;;6.03;;
3141;SDS011;1581;51.568;6.998;2024-01-15T05:25:37;9.77;;;5.70;;
3141;SDS011;1581;51.568;6.998;2024-01-15T05:28:05;13.93;;;5.70;;
3141;SDS011;1581;51.568;6.998;2024-01-15T05:30:33;11.13;;;5.23;;
3141;SDS011;1581;51.568;6.998;2024-01-15T05:33:01;11.30;;;5.80;;
3141;SDS011;1581;51.568;6.998;2024-01-15T05:35:29;9.80;;;5.67;;
3141;SDS011;1581;51.568;6.998;2024-01-15T05:37:57;12.20;;;6.13;;
3141;SDS011;1581;51.568;6.998;2024-01-15T05:40:24;9.97;;;5.10;;
3141;SDS011;1581;51.568;6.998;2024-01-15T05:42:52;14.43;;;5.77;;
3141;SDS011;1581;51.568;6.998;2024-01-15T05:45:19;8.07;;;5.10;;
3141;SDS011;1581;51.568;6.998;2024-01-15T05:47:47;15.27;;;5.43;;
3141;SDS011;1581;51.568;6.998;2024-01-15T05:50:16;10.47;;;5.53;;
3141;SDS011;1581;51.568;6.998;2024-01-15T05:52:43;11.63;;;5.80;;
3141;SDS011;1581;51.568;6.998;2024-01-15T05:55:10;13.57;;;5.07;;
3141;SDS011;1581;51.568;6.998;2024-01-15T05:57:38;10.10;;;5.50;;
3141;SDS011;1581;51.568;6.998;2024-01-15T06:00:06;7.17;;;4.97;;
3141;SDS011;1581;51.568;6.998;2024-01-15T06:02:35;17.03;;;5.07;;
3141;SDS011;1581;51.568;6.998;2024-01-15T06:05:04;8.70;;;5.33;;
3141;SDS011;1581;51.568;6.998;2024-01-15T06:07:34;15.60;;;7.00;;
3141;SDS011;1581;51.568;6.998;2024-01-15T06:10:02;10.70;;;6.30;;
3141;SDS011;1581;51.568;6.998;2024-01-15T06:12:30;11.23;;;6.00;;
3141;SDS011;1581;51.568;6.998;2024-01-15T06:14:58;10.00;;;5.23;;
3141;SDS011;1581;51.568;6.998;2024-01-15T06:17:26;10.07;;;5.13;;
3141;SDS011;1581;51.568;6.998;2024-01-15T06:19:53;15.67;;;5.47;;
3141;SDS011;1581;51.568;6.998;2024-01-15T06:22:21;11.97;;;5.33;;
3141;SDS011;1581;51.568;6.998;2024-01-15T06:24:49;8.13;;;6.10;;
3141;SDS011;1581;51.568;6.998;2024-01-15T06:27:17;13.00;;;6.33;;
3141;SDS011;1581;51.568;6.998;2024-01-15T06:29:45;12.43;;;6.40;;
3141;SDS011;1581;51.568;6.998;2024-01-15T06:32:13;17.57;;;5.83;;
3141;SDS011;1581;51.568;6.998;2024-01-15T06:34:40;15.83;;;5.83;;
3141;SDS011;1581;51.568;6.998;2024-01-15T06:37:08;9.80;;;4.90;;
3141;SDS011;1581;51.568;6.998;2024-01-15T06:39:35;13.23;;;5.07;;
3141;SDS011;1581;51.568;6.998;2024-01-15T06:42:04;6.30;;;4.90;;
3141;SDS011;1581;51.568;6.998;2024-01-15T06:44:32;12.70;;;4.50;;
3141;SDS011;1581;51.568;6.998;2024-01-15T06:47:00;8.23;;;4.27;;
3141;SDS011;1581;51.568;6.998;2024-01-15T06:49:27;6.20;;;4.27;;
3141;SDS011;1581;51.568;6.998;2024-01-15T06:51:55;9.47;;;4.60;;
3141;SDS011;1581;51.568;6.998;2024-01-15T06:54:23;9.37;;;3.40;;
3141;SDS011;1581;51.568;6.998;2024-01-15T06:56:51;3.93;;;2.90;;
3141;SDS011;1581;51.568;6.998;2024-01-15T06:59:20;8.13;;;4.40;;
3141;SDS011;1581;51.568;6.998;2024-01-15T07:01:47;9.80;;;3.50;;
3141;SDS011;1581;51.568;6.998;2024-01-15T07:04:15;7.03;;;2.53;;
3141;SDS011;1581;51.568;6.998;2024-01-15T07:06:43;11.03;;;3.90;;
3141;SDS011;1581;51.568;6.998;2024-01-15T07:09:10;10.00;;;2.77;;
3141;SDS011;1581;51.568;6.998;2024-01-15T07:11:38;5.50;;;1.90;;
3141;SDS011;1581;51.568;6.998;2024-01-15T07:14:10;8.40;;;2.93;;
3141;SDS011;1581;51.568;6.998;2024-01-15T07:16:39;2.40;;;2.20;;
3141;SDS011;1581;51.568;6.998;2024-01-15T07:19:06;4.40;;;2.40;;
3141;SDS011;1581;51.568;6.998;2024-01-15T07:21:34;4.07;;;2.07;;
3141;SDS011;1581;51.568;6.998;2024-01-15T07:24:01;4.03;;;1.90;;
3141;SDS011;1581;51.568;6.998;2024-01-15T07:26:29;4.73;;;2.27;;
3141;SDS011;1581;51.568;6.998;2024-01-15T07:28:57;2.47;;;1.80;;
3141;SDS011;1581;51.568;6.998;2024-01-15T07:31:24;2.60;;;2.40;;
3141;SDS011;1581;51.568;6.998;2024-01-15T07:33:54;2.53;;;1.80;;
3141;SDS011;1581;51.568;6.998;2024-01-15T07:36:22;3.77;;;2.10;;
3141;SDS011;1581;51.568;6.998;2024-01-15T07:38:49;8.13;;;4.13;;
3141;SDS011;1581;51.568;6.998;2024-01-15T07:41:16;7.00;;;2.03;;
3141;SDS011;1581;51.568;6.998;2024-01-15T07:43:44;9.10;;;2.20;;
3141;SDS011;1581;51.568;6.998;2024-01-15T07:46:11;4.80;;;2.40;;
3141;SDS011;1581;51.568;6.998;2024-01-15T07:48:38;3.60;;;2.03;;
3141;SDS011;1581;51.568;6.998;2024-01-15T07:51:07;2.30;;;2.00;;
3141;SDS011;1581;51.568;6.998;2024-01-15T07:53:35;3.57;;;2.07;;
3141;SDS011;1581;51.568;6.998;2024-01-15T07:56:02;4.17;;;1.63;;
3141;SDS011;1581;51.568;6.998;2024-01-15T07:58:30;2.40;;;1.97;;
3141;SDS011;1581;51.568;6.998;2024-01-15T08:00:57;5.57;;;2.00;;
3141;SDS011;1581;51.568;6.998;2024-01-15T08:03:25;9.97;;;2.60;;
3141;SDS011;1581;51.568;6.998;2024-01-15T08:05:52;2.67;;;1.90;;
3141;SDS011;1581;51.568;6.998;2024-01-15T08:08:24;3.73;;;2.30;;
3141;SDS011;1581;51.568;6.998;2024-01-15T08:10:51;2.63;;;2.00;;
3141;SDS011;1581;51.568;6.998;2024-01-15T08:13:19;2.97;;;1.90;;
3141;SDS011;1581;51.568;6.998;2024-01-15T08:15:46;3.10;;;2.20;;
3141;SDS011;1581;51.568;6.998;2024-01-15T08:18:15;2.20;;;2.00;;
3141;SDS011;1581;51.568;6.998;2024-01-15T08:20:42;4.00;;;2.20;;
3141;SDS011;1581;51.568;6.998;2024-01-15T08:23:10;4.97;;;2.80;;
3141;SDS011;1581;51.568;6.998;2024-01-15T08:25:39;6.40;;;3.07;;
3141;SDS011;1581;51.568;6.998;2024-01-15T08:28:06;2.97;;;2.70;;
3141;SDS011;1581;51.568;6.998;2024-01-15T08:30:34;5.73;;;2.90;;
3141;SDS011;1581;51.568;6.998;2024-01-15T08:33:02;6.77;;;2.97;;
3141;SDS011;1581;51.568;6.998;2024-01-15T08:35:30;5.57;;;3.70;;
3141;SDS011;1581;51.568;6.998;2024-01-15T08:37:57;5.57;;;4.07;;
3141;SDS011;1581;51.568;6.998;2024-01-15T08:40:24;3.57;;;3.30;;
3141;SDS011;1581;51.568;6.998;2024-01-15T08:42:53;3.53;;;3.20;;
3141;SDS011;1581;51.568;6.998;2024-01-15T08:45:21;3.60;;;3.30;;
3141;SDS011;1581;51.568;6.998;2024-01-15T08:47:48;4.30;;;3.93;;
3141;SDS011;1581;51.568;6.998;2024-01-15T08:50:15;4.77;;;4.20;;
3141;SDS011;1581;51.568;6.998;2024-01-15T08:52:43;7.00;;;3.70;;
3141;SDS011;1581;51.568;6.998;2024-01-15T08:55:11;4.43;;;3.83;;
3141;SDS011;1581;51.568;6.998;2024-01-15T08:57:39;4.43;;;3.80;;
3141;SDS011;1581;51.568;6.998;2024-01-15T09:00:08;5.60;;;3.83;;
3141;SDS011;1581;51.568;6.998;2024-01-15T09:02:37;5.67;;;3.60;;
3141;SDS011;1581;51.568;6.998;2024-01-15T09:05:05;4.30;;;3.90;;
3141;SDS011;1581;51.568;6.998;2024-01-15T09:07:33;3.70;;;3.30;;
3141;SDS011;1581;51.568;6.998;2024-01-15T09:10:00;11.37;;;4.57;;
3141;SDS011;1581;51.568;6.998;2024-01-15T09:12:28;4.37;;;3.47;;
3141;SDS011;1581;51.568;6.998;2024-01-15T09:14:55;3.60;;;3.30;;
3141;SDS011;1581;51.568;6.998;2024-01-15T09:17:24;4.17;;;3.00;;
3141;SDS011;1581;51.568;6.998;2024-01-15T09:19:53;9.10;;;3.30;;
3141;SDS011;1581;51.568;6.998;2024-01-15T09:22:20;4.20;;;3.20;;
3141;SDS011;1581;51.568;6.998;2024-01-15T09:24:48;3.00;;;2.80;;
3141;SDS011;1581;51.568;6.998;2024-01-15T09:27:15;4.93;;;2.90;;
3141;SDS011;1581;51.568;6.998;2024-01-15T09:29:42;8.63;;;4.10;;
3141;SDS011;1581;51.568;6.998;2024-01-15T09:32:11;3.37;;;3.07;;
3141;SDS011;1581;51.568;6.998;2024-01-15T09:34:40;4.13;;;3.00;;
3141;SDS011;1581;51.568;6.998;2024-01-15T09:37:07;6.80;;;3.50;;
3141;SDS011;1581;51.568;6.998;2024-01-15T09:39:35;3.67;;;3.33;;
3141;SDS011;1581;51.568;6.998;2024-01-15T09:42:03;5.50;;;3.90;;
3141;SDS011;1581;51.568;6.998;2024-01-15T09:44:31;3.63;;;3.30;;
3141;SDS011;1581;51.568;6.998;2024-01-15T09:46:59;6.23;;;3.33;;
3141;SDS011;1581;51.568;6.998;2024-01-15T09:49:27;3.20;;;2.90;;
3141;SDS011;1581;51.568;6.998;2024-01-15T09:51:56;3.33;;;2.40;;
3141;SDS011;1581;51.568;6.998;2024-01-15T09:54:24;2.50;;;2.30;;
3141;SDS011;1581;51.568;6.998;2024-01-15T09:56:52;1.90;;;1.80;;
3141;SDS011;1581;51.568;6.998;2024-01-15T09:59:20;2.20;;;2.00;;
3141;SDS011;1581;51.568;6.998;2024-01-15T10:01:50;2.70;;;2.10;;
3141;SDS011;1581;51.568;6.998;2024-01-15T10:04:19;3.17;;;2.13;;
3141;SDS011;1581;51.568;6.998;2024-01-15T10:06:46;2.03;;;1.80;;
3141;SDS011;1581;51.568;6.998;2024-01-15T10:09:18;2.43;;;2.23;;
3141;SDS011;1581;51.568;6.998;2024-01-15T10:11:46;3.43;;;2.40;;
3141;SDS011;1581;51.568;6.998;2024-01-15T10:14:13;3.27;;;2.97;;
3141;SDS011;1581;51.568;6.998;2024-01-15T10:16:40;3.90;;;2.67;;
3141;SDS011;1581;51.568;6.998;2024-01-15T10:19:08;3.97;;;2.77;;
3141;SDS011;1581;51.568;6.998;2024-01-15T10:21:43;2.93;;;2.70;;
3141;SDS011;1581;51.568;6.998;2024-01-15T10:24:12;3.40;;;3.10;;
3141;SDS011;1581;51.568;6.998;2024-01-15T10:26:41;3.60;;;2.70;;
3141;SDS011;1581;51.568;6.998;2024-01-15T10:29:09;3.10;;;2.60;;
3141;SDS011;1581;51.568;6.998;2024-01-15T10:31:37;9.50;;;2.47;;
3141;SDS011;1581;51.568;6.998;2024-01-15T10:34:11;4.73;;;2.83;;
3141;SDS011;1581;51.568;6.998;2024-01-15T10:36:40;4.60;;;3.00;;
3141;SDS011;1581;51.568;6.998;2024-01-15T10:39:13;4.50;;;3.30;;
3141;SDS011;1581;51.568;6.998;2024-01-15T10:44:12;5.50;;;3.17;;
3141;SDS011;1581;51.568;6.998;2024-01-15T10:46:40;4.97;;;3.33;;
3141;SDS011;1581;51.568;6.998;2024-01-15T10:49:07;3.90;;;2.80;;
3141;SDS011;1581;51.568;6.998;2024-01-15T10:51:37;6.00;;;3.70;;
3141;SDS011;1581;51.568;6.998;2024-01-15T10:54:04;3.07;;;2.77;;
3141;SDS011;1581;51.568;6.998;2024-01-15T10:56:36;9.87;;;2.90;;
3141;SDS011;1581;51.568;6.998;2024-01-15T10:59:06;3.10;;;2.80;;
3141;SDS011;1581;51.568;6.998;2024-01-15T11:01:35;4.90;;;2.70;;
3141;SDS011;1581;51.568;6.998;2024-01-15T11:04:03;4.77;;;3.00;;
3141;SDS011;1581;51.568;6.998;2024-01-15T11:06:40;5.50;;;3.27;;
3141;SDS011;1581;51.568;6.998;2024-01-15T11:09:10;5.00;;;3.30;;
3141;SDS011;1581;51.568;6.998;2024-01-15T11:11:43;5.93;;;3.23;;
3141;SDS011;1581;51.568;6.998;2024-01-15T11:17:05;3.97;;;2.80;;
3141;SDS011;1581;51.568;6.998;2024-01-15T11:19:35;2.87;;;2.50;;
3141;SDS011;1581;51.568;6.998;2024-01-15T11:22:05;3.80;;;2.70;;
3141;SDS011;1581;51.568;6.998;2024-01-15T11:24:35;4.03;;;2.70;;
3141;SDS011;1581;51.568;6.998;2024-01-15T11:27:05;4.27;;;2.80;;
3141;SDS011;1581;51.568;6.998;2024-01-15T11:29:34;4.40;;;2.50;;
3141;SDS011;1581;51.568;6.998;2024-01-15T11:32:04;3.07;;;2.20;;
3141;SDS011;1581;51.568;6.998;2024-01-15T11:34:52;4.30;;;2.20;;
3141;SDS011;1581;51.568;6.998;2024-01-15T11:37:27;2.60;;;1.70;;
3141;SDS011;1581;51.568;6.998;2024-01-15T11:39:56;1.97;;;1.73;;
3141;SDS011;1581;51.568;6.998;2024-01-15T11:42:30;2.00;;;1.80;;
3141;SDS011;1581;51.568;6.998;2024-01-15T11:44:58;3.13;;;1.90;;
3141;SDS011;1581;51.568;6.998;2024-01-15T11:50:47;2.73;;;2.10;;
3141;SDS011;1581;51.568;6.998;2024-01-15T11:53:17;4.17;;;2.50;;
3141;SDS011;1581;51.568;6.998;2024-01-15T11:55:55;4.43;;;2.37;;
3141;SDS011;1581;51.568;6.998;2024-01-15T11:58:25;2.87;;;2.57;;
3141;SDS011;1581;51.568;6.998;2024-01-15T12:00:54;2.60;;;2.37;;
3141;SDS011;1581;51.568;6.998;2024-01-15T12:03:22;3.53;;;2.60;;
3141;SDS011;1581;51.568;6.998;2024-01-15T12:05:51;4.70;;;3.10;;
3141;SDS011;1581;51.568;6.998;2024-01-15T12:08:22;2.93;;;2.63;;
3141;SDS011;1581;51.568;6.998;2024-01-15T12:10:51;2.50;;;2.30;;
3141;SDS011;1581;51.568;6.998;2024-01-15T12:13:18;5.43;;;2.40;;
3141;SDS011;1581;51.568;6.998;2024-01-15T12:15:47;6.53;;;2.63;;
3141;SDS011;1581;51.568;6.998;2024-01-15T12:18:18;6.07;;;2.83;;
3141;SDS011;1581;51.568;6.998;2024-01-15T12:20:46;6.37;;;2.27;;
3141;SDS011;1581;51.568;6.998;2024-01-15T12:23:14;6.10;;;2.30;;
3141;SDS011;1581;51.568;6.998;2024-01-15T12:25:41;3.13;;;2.50;;
3141;SDS011;1581;51.568;6.998;2024-01-15T12:28:09;2.47;;;2.00;;
3141;SDS011;1581;51.568;6.998;2024-01-15T12:30:36;3.90;;;1.80;;
3141;SDS011;1581;51.568;6.998;2024-01-15T12:33:05;5.03;;;2.37;;
3141;SDS011;1581;51.568;6.998;2024-01-15T12:35:35;2.60;;;1.83;;
3141;SDS011;1581;51.568;6.998;2024-01-15T12:38:03;4.00;;;2.07;;
3141;SDS011;1581;51.568;6.998;2024-01-15T12:40:31;7.90;;;1.87;;
3141;SDS011;1581;51.568;6.998;2024-01-15T12:43:00;2.13;;;1.97;;
3141;SDS011;1581;51.568;6.998;2024-01-15T12:45:27;4.00;;;2.00;;
3141;SDS011;1581;51.568;6.998;2024-01-15T12:47:56;10.03;;;1.77;;
3141;SDS011;1581;51.568;6.998;2024-01-15T12:50:25;4.27;;;2.07;;
3141;SDS011;1581;51.568;6.998;2024-01-15T12:52:54;5.20;;;1.90;;
3141;SDS011;1581;51.568;6.998;2024-01-15T12:55:21;3.13;;;1.47;;
3141;SDS011;1581;51.568;6.998;2024-01-15T12:57:49;8.37;;;2.10;;
3141;SDS011;1581;51.568;6.998;2024-01-15T13:00:19;2.10;;;1.83;;
3141;SDS011;1581;51.568;6.998;2024-01-15T13:02:47;3.97;;;2.03;;
3141;SDS011;1581;51.568;6.998;2024-01-15T13:05:15;2.67;;;1.67;;
3141;SDS011;1581;51.568;6.998;2024-01-15T13:07:44;4.10;;;1.87;;
3141;SDS011;1581;51.568;6.998;2024-01-15T13:10:13;2.00;;;1.20;;
3141;SDS011;1581;51.568;6.998;2024-01-15T13:12:40;4.57;;;1.50;;
3141;SDS011;1581;51.568;6.998;2024-01-15T13:15:08;1.97;;;1.57;;
3141;SDS011;1581;51.568;6.998;2024-01-15T13:17:37;2.90;;;1.43;;
3141;SDS011;1581;51.568;6.998;2024-01-15T13:20:05;4.60;;;1.37;;
3141;SDS011;1581;51.568;6.998;2024-01-15T13:22:36;6.80;;;1.20;;
3141;SDS011;1581;51.568;6.998;2024-01-15T13:25:05;7.20;;;2.20;;
3141;SDS011;1581;51.568;6.998;2024-01-15T13:27:34;2.10;;;1.27;;
3141;SDS011;1581;51.568;6.998;2024-01-15T13:30:02;4.07;;;1.33;;
3141;SDS011;1581;51.568;6.998;2024-01-15T13:32:32;3.77;;;1.20;;
3141;SDS011;1581;51.568;6.998;2024-01-15T13:34:59;4.37;;;1.30;;
3141;SDS011;1581;51.568;6.998;2024-01-15T13:37:27;5.43;;;0.97;;
3141;SDS011;1581;51.568;6.998;2024-01-15T13:39:55;2.00;;;0.90;;
3141;SDS011;1581;51.568;6.998;2024-01-15T13:42:23;1.60;;;1.13;;
3141;SDS011;1581;51.568;6.998;2024-01-15T13:44:53;0.80;;;0.80;;
3141;SDS011;1581;51.568;6.998;2024-01-15T13:47:21;11.33;;;1.30;;
3141;SDS011;1581;51.568;6.998;2024-01-15T13:49:49;4.23;;;1.33;;
3141;SDS011;1581;51.568;6.998;2024-01-15T13:52:16;3.10;;;0.90;;
3141;SDS011;1581;51.568;6.998;2024-01-15T13:54:44;3.63;;;1.27;;
3141;SDS011;1581;51.568;6.998;2024-01-15T13:57:11;1.80;;;1.37;;
3141;SDS011;1581;51.568;6.998;2024-01-15T13:59:39;4.50;;;1.30;;
3141;SDS011;1581;51.568;6.998;2024-01-15T14:02:07;2.97;;;1.10;;
3141;SDS011;1581;51.568;6.998;2024-01-15T14:04:35;2.50;;;1.40;;
3141;SDS011;1581;51.568;6.998;2024-01-15T14:07:03;2.57;;;1.37;;
3141;SDS011;1581;51.568;6.998;2024-01-15T14:09:31;5.80;;;1.77;;
3141;SDS011;1581;51.568;6.998;2024-01-15T14:11:58;3.33;;;1.40;;
3141;SDS011;1581;51.568;6.998;2024-01-15T14:14:26;1.20;;;1.10;;
3141;SDS011;1581;51.568;6.998;2024-01-15T14:16:54;4.90;;;1.70;;
3141;SDS011;1581;51.568;6.998;2024-01-15T14:19:23;1.80;;;1.60;;
3141;SDS011;1581;51.568;6.998;2024-01-15T14:21:50;2.53;;;1.60;;
3141;SDS011;1581;51.568;6.998;2024-01-15T14:24:18;2.00;;;1.80;;
3141;SDS011;1581;51.568;6.998;2024-01-15T14:26:45;3.33;;;1.60;;
3141;SDS011;1581;51.568;6.998;2024-01-15T14:29:13;1.97;;;1.20;;
3141;SDS011;1581;51.568;6.998;2024-01-15T14:31:40;4.20;;;1.73;;
3141;SDS011;1581;51.568;6.998;2024-01-15T14:34:07;4.33;;;1.70;;
3141;SDS011;1581;51.568;6.998;2024-01-15T14:36:38;5.50;;;1.90;;
3141;SDS011;1581;51.568;6.998;2024-01-15T14:39:05;1.37;;;1.27;;
3141;SDS011;1581;51.568;6.998;2024-01-15T14:41:34;2.90;;;1.37;;
3141;SDS011;1581;51.568;6.998;2024-01-15T14:44:01;3.47;;;1.10;;
3141;SDS011;1581;51.568;6.998;2024-01-15T14:46:29;2.00;;;0.97;;
3141;SDS011;1581;51.568;6.998;2024-01-15T14:48:56;2.10;;;1.23;;
3141;SDS011;1581;51.568;6.998;2024-01-15T14:51:24;2.67;;;0.80;;
3141;SDS011;1581;51.568;6.998;2024-01-15T14:53:53;6.03;;;2.17;;
3141;SDS011;1581;51.568;6.998;2024-01-15T14:56:21;2.63;;;1.30;;
3141;SDS011;1581;51.568;6.998;2024-01-15T14:58:49;2.50;;;1.30;;
3141;SDS011;1581;51.568;6.998;2024-01-15T15:01:16;4.47;;;1.50;;
3141;SDS011;1581;51.568;6.998;2024-01-15T15:03:43;5.97;;;1.40;;
3141;SDS011;1581;51.568;6.998;2024-01-15T15:06:11;2.37;;;1.47;;
3141;SDS011;1581;51.568;6.998;2024-01-15T15:08:38;4.13;;;1.40;;
3141;SDS011;1581;51.568;6.998;2024-01-15T15:11:08;1.53;;;0.97;;
3141;SDS011;1581;51.568;6.998;2024-01-15T15:13:36;5.67;;;1.07;;
3141;SDS011;1581;51.568;6.998;2024-01-15T15:16:03;6.90;;;1.50;;
3141;SDS011;1581;51.568;6.998;2024-01-15T15:18:32;3.07;;;1.10;;
3141;SDS011;1581;51.568;6.998;2024-01-15T15:21:00;4.70;;;1.13;;
3141;SDS011;1581;51.568;6.998;2024-01-15T15:23:27;5.23;;;1.17;;
3141;SDS011;1581;51.568;6.998;2024-01-15T15:25:55;1.93;;;1.10;;